sensor_id;sensor_type;location;lat;lon;timestamp;temperature;humidity
3051;DHT22;1535;51.098;6.414;2023-04-06T00:02:28;0.00;99.90
3051;DHT22;1535;51.098;6.414;2023-04-06T00:05:09;0.10;99.90
3051;DHT22;1535;51.098;6.414;2023-04-06T00:07:50;0.00;99.90
3051;DHT22;1535;51.098;6.414;2023-04-06T00:10:31;0.10;99.90
3051;DHT22;1535;51.098;6.414;2023-04-06T00:13:12;0.10;99.90
3051;DHT22;1535;51.098;6.414;2023-04-06T00:15:52;0.00;99.90
3051;DHT22;1535;51.098;6.414;2023-04-06T00:18:34;0.00;99.90
3051;DHT22;1535;51.098;6.414;2023-04-06T00:21:15;-0.10;99.90
3051;DHT22;1535;51.098;6.414;2023-04-06T00:23:56;-0.20;99.90
3051;DHT22;1535;51.098;6.414;2023-04-06T00:26:37;-0.20;99.90
3051;DHT22;1535;51.098;6.414;2023-04-06T00:29:17;-0.20;99.90
3051;DHT22;1535;51.098;6.414;2023-04-06T00:31:58;-0.20;99.90
3051;DHT22;1535;51.098;6.414;2023-04-06T00:34:41;-0.30;99.90
3051;DHT22;1535;51.098;6.414;2023-04-06T00:37:22;-0.30;99.90
3051;DHT22;1535;51.098;6.414;2023-04-06T00:40:03;-0.30;99.90
3051;DHT22;1535;51.098;6.414;2023-04-06T00:42:44;-0.30;99.90
3051;DHT22;1535;51.098;6.414;2023-04-06T00:45:25;-0.40;99.90
3051;DHT22;1535;51.098;6.414;2023-04-06T00:48:07;-0.40;99.90
3051;DHT22;1535;51.098;6.414;2023-04-06T00:50:49;-0.50;99.90
3051;DHT22;1535;51.098;6.414;2023-04-06T00:53:30;-0.50;99.90
3051;DHT22;1535;51.098;6.414;2023-04-06T00:56:10;-0.50;99.90
3051;DHT22;1535;51.098;6.414;2023-04-06T00:58:51;-0.50;99.90
3051;DHT22;1535;51.098;6.414;2023-04-06T01:01:32;-0.50;99.90
3051;DHT22;1535;51.098;6.414;2023-04-06T01:04:13;-0.40;99.90
3051;DHT22;1535;51.098;6.414;2023-04-06T01:06:55;-0.40;99.90
3051;DHT22;1535;51.098;6.414;2023-04-06T01:09:35;-0.50;99.90
3051;DHT22;1535;51.098;6.414;2023-04-06T01:12:16;-0.50;99.90
3051;DHT22;1535;51.098;6.414;2023-04-06T01:14:57;-0.60;99.90
3051;DHT22;1535;51.098;6.414;2023-04-06T01:17:38;-0.60;99.90
3051;DHT22;1535;51.098;6.414;2023-04-06T01:20:19;-0.60;99.90
3051;DHT22;1535;51.098;6.414;2023-04-06T01:23:01;-0.60;99.90
3051;DHT22;1535;51.098;6.414;2023-04-06T01:25:42;-0.70;99.90
3051;DHT22;1535;51.098;6.414;2023-04-06T01:28:23;-0.60;99.90
3051;DHT22;1535;51.098;6.414;2023-04-06T01:31:04;-0.70;99.90
3051;DHT22;1535;51.098;6.414;2023-04-06T01:33:45;-0.70;99.90
3051;DHT22;1535;51.098;6.414;2023-04-06T01:36:25;-0.60;99.90
3051;DHT22;1535;51.098;6.414;2023-04-06T01:39:08;-0.60;99.90
3051;DHT22;1535;51.098;6.414;2023-04-06T01:41:48;-0.70;99.90
3051;DHT22;1535;51.098;6.414;2023-04-06T01:44:29;-0.80;99.90
3051;DHT22;1535;51.098;6.414;2023-04-06T01:47:10;-0.80;99.90
3051;DHT22;1535;51.098;6.414;2023-04-06T01:49:51;-0.90;99.90
3051;DHT22;1535;51.098;6.414;2023-04-06T01:52:32;-0.80;99.90
3051;DHT22;1535;51.098;6.414;2023-04-06T01:55:14;-0.80;99.90
3051;DHT22;1535;51.098;6.414;2023-04-06T01:57:55;-0.80;99.90
3051;DHT22;1535;51.098;6.414;2023-04-06T02:00:35;-0.90;99.90
3051;DHT22;1535;51.098;6.414;2023-04-06T02:03:16;-0.80;99.90
3051;DHT22;1535;51.098;6.414;2023-04-06T02:05:57;-0.80;99.90
3051;DHT22;1535;51.098;6.414;2023-04-06T02:08:38;-0.70;99.90
3051;DHT22;1535;51.098;6.414;2023-04-06T02:11:20;-0.80;99.90
3051;DHT22;1535;51.098;6.414;2023-04-06T02:14:01;-0.80;99.90
3051;DHT22;1535;51.098;6.414;2023-04-06T02:16:42;-0.80;99.90
3051;DHT22;1535;51.098;6.414;2023-04-06T02:19:23;-0.80;99.90
3051;DHT22;1535;51.098;6.414;2023-04-06T02:22:04;-0.70;99.90
3051;DHT22;1535;51.098;6.414;2023-04-06T02:24:44;-0.60;99.90
3051;DHT22;1535;51.098;6.414;2023-04-06T02:27:26;-0.50;99.90
3051;DHT22;1535;51.098;6.414;2023-04-06T02:30:08;-0.60;99.90
3051;DHT22;1535;51.098;6.414;2023-04-06T02:32:49;-0.70;99.90
3051;DHT22;1535;51.098;6.414;2023-04-06T02:35:31;-0.70;99.90
3051;DHT22;1535;51.098;6.414;2023-04-06T02:38:11;-0.60;99.90
3051;DHT22;1535;51.098;6.414;2023-04-06T02:40:52;-0.60;99.90
3051;DHT22;1535;51.098;6.414;2023-04-06T02:43:34;-0.60;99.90
3051;DHT22;1535;51.098;6.414;2023-04-06T02:46:16;-0.70;99.90
3051;DHT22;1535;51.098;6.414;2023-04-06T02:48:57;-0.70;99.90
3051;DHT22;1535;51.098;6.414;2023-04-06T02:51:38;-0.80;99.90
3051;DHT22;1535;51.098;6.414;2023-04-06T02:54:19;-0.80;99.90
3051;DHT22;1535;51.098;6.414;2023-04-06T02:56:59;-0.90;99.90
3051;DHT22;1535;51.098;6.414;2023-04-06T02:59:41;-0.80;99.90
3051;DHT22;1535;51.098;6.414;2023-04-06T03:02:22;-0.90;99.90
3051;DHT22;1535;51.098;6.414;2023-04-06T03:05:03;-0.90;99.90
3051;DHT22;1535;51.098;6.414;2023-04-06T03:07:45;-0.90;99.90
3051;DHT22;1535;51.098;6.414;2023-04-06T03:10:26;-0.80;99.90
3051;DHT22;1535;51.098;6.414;2023-04-06T03:13:07;-0.80;99.90
3051;DHT22;1535;51.098;6.414;2023-04-06T03:15:49;-0.70;99.90
3051;DHT22;1535;51.098;6.414;2023-04-06T03:18:31;-0.80;99.90
3051;DHT22;1535;51.098;6.414;2023-04-06T03:21:12;-0.80;99.90
3051;DHT22;1535;51.098;6.414;2023-04-06T03:23:52;-0.80;99.90
3051;DHT22;1535;51.098;6.414;2023-04-06T03:26:33;-0.80;99.90
3051;DHT22;1535;51.098;6.414;2023-04-06T03:29:14;-0.80;99.90
3051;DHT22;1535;51.098;6.414;2023-04-06T03:31:57;-0.80;99.90
3051;DHT22;1535;51.098;6.414;2023-04-06T03:34:38;-0.90;99.90
3051;DHT22;1535;51.098;6.414;2023-04-06T03:37:19;-0.90;99.90
3051;DHT22;1535;51.098;6.414;2023-04-06T03:40:00;-0.80;99.90
3051;DHT22;1535;51.098;6.414;2023-04-06T03:42:41;-0.80;99.90
3051;DHT22;1535;51.098;6.414;2023-04-06T03:45:21;-0.80;99.90
3051;DHT22;1535;51.098;6.414;2023-04-06T03:48:04;-0.70;99.90
3051;DHT22;1535;51.098;6.414;2023-04-06T03:50:45;-0.70;99.90
3051;DHT22;1535;51.098;6.414;2023-04-06T03:53:26;-0.70;99.90
3051;DHT22;1535;51.098;6.414;2023-04-06T03:56:07;-0.60;99.90
3051;DHT22;1535;51.098;6.414;2023-04-06T03:58:48;-0.60;99.90
3051;DHT22;1535;51.098;6.414;2023-04-06T04:01:28;-0.60;99.90
3051;DHT22;1535;51.098;6.414;2023-04-06T04:04:11;-0.60;99.90
3051;DHT22;1535;51.098;6.414;2023-04-06T04:06:51;-0.60;99.90
3051;DHT22;1535;51.098;6.414;2023-04-06T04:09:32;-0.60;99.90
3051;DHT22;1535;51.098;6.414;2023-04-06T04:12:13;-0.60;99.90
3051;DHT22;1535;51.098;6.414;2023-04-06T04:14:53;-0.60;99.90
3051;DHT22;1535;51.098;6.414;2023-04-06T04:17:34;-0.40;99.90
3051;DHT22;1535;51.098;6.414;2023-04-06T04:20:17;-0.40;99.90
3051;DHT22;1535;51.098;6.414;2023-04-06T04:22:58;-0.40;99.90
3051;DHT22;1535;51.098;6.414;2023-04-06T04:25:38;-0.40;99.90
3051;DHT22;1535;51.098;6.414;2023-04-06T04:28:20;-0.40;99.90
3051;DHT22;1535;51.098;6.414;2023-04-06T04:31:00;-0.40;99.90
3051;DHT22;1535;51.098;6.414;2023-04-06T04:33:41;-0.40;99.90
3051;DHT22;1535;51.098;6.414;2023-04-06T04:36:24;-0.40;99.90
3051;DHT22;1535;51.098;6.414;2023-04-06T04:39:04;-0.40;99.90
3051;DHT22;1535;51.098;6.414;2023-04-06T04:41:45;-0.30;99.90
3051;DHT22;1535;51.098;6.414;2023-04-06T04:44:26;-0.30;99.90
3051;DHT22;1535;51.098;6.414;2023-04-06T04:47:06;-0.20;99.90
3051;DHT22;1535;51.098;6.414;2023-04-06T04:49:47;-0.20;99.90
3051;DHT22;1535;51.098;6.414;2023-04-06T04:52:29;-0.10;99.90
3051;DHT22;1535;51.098;6.414;2023-04-06T04:55:10;-0.10;99.90
3051;DHT22;1535;51.098;6.414;2023-04-06T04:57:51;0.00;99.90
3051;DHT22;1535;51.098;6.414;2023-04-06T05:00:32;0.00;99.90
3051;DHT22;1535;51.098;6.414;2023-04-06T05:03:18;0.10;99.90
3051;DHT22;1535;51.098;6.414;2023-04-06T05:06:00;0.10;99.90
3051;DHT22;1535;51.098;6.414;2023-04-06T05:08:43;0.10;99.90
3051;DHT22;1535;51.098;6.414;2023-04-06T05:11:24;0.20;99.90
3051;DHT22;1535;51.098;6.414;2023-04-06T05:14:05;0.30;99.90
3051;DHT22;1535;51.098;6.414;2023-04-06T05:16:46;0.40;99.90
3051;DHT22;1535;51.098;6.414;2023-04-06T05:19:27;0.50;99.90
3051;DHT22;1535;51.098;6.414;2023-04-06T05:22:08;0.70;99.90
3051;DHT22;1535;51.098;6.414;2023-04-06T05:24:50;0.80;99.90
3051;DHT22;1535;51.098;6.414;2023-04-06T05:27:31;0.90;99.90
3051;DHT22;1535;51.098;6.414;2023-04-06T05:30:12;1.00;99.90
3051;DHT22;1535;51.098;6.414;2023-04-06T05:32:53;1.10;99.90
3051;DHT22;1535;51.098;6.414;2023-04-06T05:35:33;1.20;99.90
3051;DHT22;1535;51.098;6.414;2023-04-06T05:38:14;1.40;99.90
3051;DHT22;1535;51.098;6.414;2023-04-06T05:40:57;1.50;99.90
3051;DHT22;1535;51.098;6.414;2023-04-06T05:43:38;1.60;99.90
3051;DHT22;1535;51.098;6.414;2023-04-06T05:46:18;1.70;99.90
3051;DHT22;1535;51.098;6.414;2023-04-06T05:48:59;1.80;99.90
3051;DHT22;1535;51.098;6.414;2023-04-06T05:51:40;2.00;99.90
3051;DHT22;1535;51.098;6.414;2023-04-06T05:54:21;2.10;99.90
3051;DHT22;1535;51.098;6.414;2023-04-06T05:57:04;2.30;99.90
3051;DHT22;1535;51.098;6.414;2023-04-06T05:59:44;2.40;99.90
3051;DHT22;1535;51.098;6.414;2023-04-06T06:02:26;2.70;99.90
3051;DHT22;1535;51.098;6.414;2023-04-06T06:05:07;2.90;99.90
3051;DHT22;1535;51.098;6.414;2023-04-06T06:07:48;3.00;99.90
3051;DHT22;1535;51.098;6.414;2023-04-06T06:10:29;3.00;99.90
3051;DHT22;1535;51.098;6.414;2023-04-06T06:13:12;3.30;99.90
3051;DHT22;1535;51.098;6.414;2023-04-06T06:15:53;3.50;99.90
3051;DHT22;1535;51.098;6.414;2023-04-06T06:18:34;3.70;99.90
3051;DHT22;1535;51.098;6.414;2023-04-06T06:21:14;4.10;99.90
3051;DHT22;1535;51.098;6.414;2023-04-06T06:23:55;4.30;99.90
3051;DHT22;1535;51.098;6.414;2023-04-06T06:26:36;4.30;99.90
3051;DHT22;1535;51.098;6.414;2023-04-06T06:29:19;4.50;99.90
3051;DHT22;1535;51.098;6.414;2023-04-06T06:31:59;4.60;99.90
3051;DHT22;1535;51.098;6.414;2023-04-06T06:34:40;4.70;99.90
3051;DHT22;1535;51.098;6.414;2023-04-06T06:37:21;4.90;99.90
3051;DHT22;1535;51.098;6.414;2023-04-06T06:40:02;5.00;99.90
3051;DHT22;1535;51.098;6.414;2023-04-06T06:42:43;5.20;99.90
3051;DHT22;1535;51.098;6.414;2023-04-06T06:45:25;5.40;99.90
3051;DHT22;1535;51.098;6.414;2023-04-06T06:48:06;5.50;99.90
3051;DHT22;1535;51.098;6.414;2023-04-06T06:50:47;5.50;99.90
3051;DHT22;1535;51.098;6.414;2023-04-06T06:53:28;5.60;99.90
3051;DHT22;1535;51.098;6.414;2023-04-06T06:56:09;5.60;99.90
3051;DHT22;1535;51.098;6.414;2023-04-06T06:58:49;5.60;99.90
3051;DHT22;1535;51.098;6.414;2023-04-06T07:01:33;5.70;99.90
3051;DHT22;1535;51.098;6.414;2023-04-06T07:04:13;6.00;99.90
3051;DHT22;1535;51.098;6.414;2023-04-06T07:06:54;6.10;99.90
3051;DHT22;1535;51.098;6.414;2023-04-06T07:09:35;6.20;99.90
3051;DHT22;1535;51.098;6.414;2023-04-06T07:12:16;6.40;99.90
3051;DHT22;1535;51.098;6.414;2023-04-06T07:14:56;6.50;99.90
3051;DHT22;1535;51.098;6.414;2023-04-06T07:17:38;6.70;99.90
3051;DHT22;1535;51.098;6.414;2023-04-06T07:20:19;6.80;99.90
3051;DHT22;1535;51.098;6.414;2023-04-06T07:23:00;7.10;99.90
3051;DHT22;1535;51.098;6.414;2023-04-06T07:25:42;7.30;99.90
3051;DHT22;1535;51.098;6.414;2023-04-06T07:28:23;7.30;99.90
3051;DHT22;1535;51.098;6.414;2023-04-06T07:31:04;7.50;99.90
3051;DHT22;1535;51.098;6.414;2023-04-06T07:33:46;7.70;99.90
3051;DHT22;1535;51.098;6.414;2023-04-06T07:36:26;8.10;99.90
3051;DHT22;1535;51.098;6.414;2023-04-06T07:39:07;8.20;99.90
3051;DHT22;1535;51.098;6.414;2023-04-06T07:45:10;8.70;99.90
3051;DHT22;1535;51.098;6.414;2023-04-06T07:47:37;9.00;99.90
3051;DHT22;1535;51.098;6.414;2023-04-06T07:50:06;9.10;99.90
3051;DHT22;1535;51.098;6.414;2023-04-06T07:52:33;9.10;99.90
3051;DHT22;1535;51.098;6.414;2023-04-06T07:55:00;8.90;99.90
3051;DHT22;1535;51.098;6.414;2023-04-06T07:57:27;9.10;99.90
3051;DHT22;1535;51.098;6.414;2023-04-06T07:59:54;9.30;99.90
3051;DHT22;1535;51.098;6.414;2023-04-06T08:02:22;9.30;99.90
3051;DHT22;1535;51.098;6.414;2023-04-06T08:04:51;9.50;99.90
3051;DHT22;1535;51.098;6.414;2023-04-06T08:07:19;9.80;99.90
3051;DHT22;1535;51.098;6.414;2023-04-06T08:09:46;9.90;99.90
3051;DHT22;1535;51.098;6.414;2023-04-06T08:12:13;10.50;99.90
3051;DHT22;1535;51.098;6.414;2023-04-06T08:14:40;10.40;99.90
3051;DHT22;1535;51.098;6.414;2023-04-06T08:17:07;10.40;99.90
3051;DHT22;1535;51.098;6.414;2023-04-06T08:19:34;10.50;99.90
3051;DHT22;1535;51.098;6.414;2023-04-06T08:22:02;10.70;99.90
3051;DHT22;1535;51.098;6.414;2023-04-06T08:24:31;10.80;99.90
3051;DHT22;1535;51.098;6.414;2023-04-06T08:26:58;10.90;99.90
3051;DHT22;1535;51.098;6.414;2023-04-06T08:29:24;10.90;99.90
3051;DHT22;1535;51.098;6.414;2023-04-06T08:31:53;11.20;99.90
3051;DHT22;1535;51.098;6.414;2023-04-06T08:34:20;11.30;99.90
3051;DHT22;1535;51.098;6.414;2023-04-06T08:36:48;11.40;99.90
3051;DHT22;1535;51.098;6.414;2023-04-06T08:39:15;11.40;99.90
3051;DHT22;1535;51.098;6.414;2023-04-06T08:41:44;11.80;99.90
3051;DHT22;1535;51.098;6.414;2023-04-06T08:44:11;12.20;99.90
3051;DHT22;1535;51.098;6.414;2023-04-06T08:46:38;12.50;99.90
3051;DHT22;1535;51.098;6.414;2023-04-06T08:49:05;12.50;99.90
3051;DHT22;1535;51.098;6.414;2023-04-06T08:58:50;12.80;99.90
3051;DHT22;1535;51.098;6.414;2023-04-06T09:01:20;12.80;99.90
3051;DHT22;1535;51.098;6.414;2023-04-06T09:03:49;13.00;99.90
3051;DHT22;1535;51.098;6.414;2023-04-06T09:06:17;13.00;99.90
3051;DHT22;1535;51.098;6.414;2023-04-06T09:08:44;12.90;99.90
3051;DHT22;1535;51.098;6.414;2023-04-06T09:11:11;12.80;99.90
3051;DHT22;1535;51.098;6.414;2023-04-06T09:13:45;12.70;99.90
3051;DHT22;1535;51.098;6.414;2023-04-06T09:16:13;13.00;99.90
3051;DHT22;1535;51.098;6.414;2023-04-06T09:18:41;13.20;98.90
3051;DHT22;1535;51.098;6.414;2023-04-06T09:21:08;13.10;98.30
3051;DHT22;1535;51.098;6.414;2023-04-06T09:23:35;13.30;98.00
3051;DHT22;1535;51.098;6.414;2023-04-06T09:26:06;13.60;97.60
3051;DHT22;1535;51.098;6.414;2023-04-06T09:28:47;13.90;97.80
3051;DHT22;1535;51.098;6.414;2023-04-06T09:31:16;14.00;97.00
3051;DHT22;1535;51.098;6.414;2023-04-06T09:33:45;14.60;96.00
3051;DHT22;1535;51.098;6.414;2023-04-06T09:36:12;14.80;95.00
3051;DHT22;1535;51.098;6.414;2023-04-06T09:38:52;14.60;95.10
3051;DHT22;1535;51.098;6.414;2023-04-06T09:41:23;14.50;95.70
3051;DHT22;1535;51.098;6.414;2023-04-06T09:43:51;15.00;94.80
3051;DHT22;1535;51.098;6.414;2023-04-06T09:46:21;14.90;94.00
3051;DHT22;1535;51.098;6.414;2023-04-06T09:48:50;15.10;94.00
3051;DHT22;1535;51.098;6.414;2023-04-06T09:51:18;15.60;93.40
3051;DHT22;1535;51.098;6.414;2023-04-06T09:53:51;15.90;92.90
3051;DHT22;1535;51.098;6.414;2023-04-06T09:56:23;15.90;91.80
3051;DHT22;1535;51.098;6.414;2023-04-06T09:58:54;16.40;90.80
3051;DHT22;1535;51.098;6.414;2023-04-06T10:01:26;16.60;89.70
3051;DHT22;1535;51.098;6.414;2023-04-06T10:03:59;16.50;89.50
3051;DHT22;1535;51.098;6.414;2023-04-06T10:06:32;16.60;88.50
3051;DHT22;1535;51.098;6.414;2023-04-06T10:09:03;16.60;90.00
3051;DHT22;1535;51.098;6.414;2023-04-06T10:11:31;16.40;88.20
3051;DHT22;1535;51.098;6.414;2023-04-06T10:13:58;16.30;87.40
3051;DHT22;1535;51.098;6.414;2023-04-06T10:16:28;16.30;87.10
3051;DHT22;1535;51.098;6.414;2023-04-06T10:18:59;16.20;88.20
3051;DHT22;1535;51.098;6.414;2023-04-06T10:21:27;16.30;88.20
3051;DHT22;1535;51.098;6.414;2023-04-06T10:23:59;16.20;88.50
3051;DHT22;1535;51.098;6.414;2023-04-06T10:26:26;15.60;86.90
3051;DHT22;1535;51.098;6.414;2023-04-06T10:29:01;14.60;90.20
3051;DHT22;1535;51.098;6.414;2023-04-06T10:31:29;15.10;90.40
3051;DHT22;1535;51.098;6.414;2023-04-06T10:33:57;15.40;90.70
3051;DHT22;1535;51.098;6.414;2023-04-06T10:36:27;15.30;92.00
3051;DHT22;1535;51.098;6.414;2023-04-06T10:38:57;15.20;91.90
3051;DHT22;1535;51.098;6.414;2023-04-06T10:41:24;14.90;90.60
3051;DHT22;1535;51.098;6.414;2023-04-06T10:44:00;15.10;90.10
3051;DHT22;1535;51.098;6.414;2023-04-06T10:46:30;15.20;89.90
3051;DHT22;1535;51.098;6.414;2023-04-06T10:48:58;15.10;90.00
3051;DHT22;1535;51.098;6.414;2023-04-06T10:51:28;15.00;90.30
3051;DHT22;1535;51.098;6.414;2023-04-06T10:53:55;15.20;88.10
3051;DHT22;1535;51.098;6.414;2023-04-06T10:56:24;14.80;86.90
3051;DHT22;1535;51.098;6.414;2023-04-06T10:58:54;14.50;89.60
3051;DHT22;1535;51.098;6.414;2023-04-06T11:01:23;14.60;88.90
3051;DHT22;1535;51.098;6.414;2023-04-06T11:03:53;14.60;80.30
3051;DHT22;1535;51.098;6.414;2023-04-06T11:06:21;14.70;82.10
3051;DHT22;1535;51.098;6.414;2023-04-06T11:08:48;15.10;83.50
3051;DHT22;1535;51.098;6.414;2023-04-06T11:11:17;15.30;80.70
3051;DHT22;1535;51.098;6.414;2023-04-06T11:13:45;15.30;81.20
3051;DHT22;1535;51.098;6.414;2023-04-06T11:16:14;15.50;79.70
3051;DHT22;1535;51.098;6.414;2023-04-06T11:18:53;15.60;80.30
3051;DHT22;1535;51.098;6.414;2023-04-06T11:21:32;16.00;81.30
3051;DHT22;1535;51.098;6.414;2023-04-06T11:24:09;16.00;80.10
3051;DHT22;1535;51.098;6.414;2023-04-06T11:26:41;15.60;82.40
3051;DHT22;1535;51.098;6.414;2023-04-06T11:29:09;15.70;82.60
3051;DHT22;1535;51.098;6.414;2023-04-06T11:31:41;15.20;84.20
3051;DHT22;1535;51.098;6.414;2023-04-06T11:34:16;14.50;85.20
3051;DHT22;1535;51.098;6.414;2023-04-06T11:36:44;14.40;90.00
3051;DHT22;1535;51.098;6.414;2023-04-06T11:39:12;14.40;89.60
3051;DHT22;1535;51.098;6.414;2023-04-06T11:41:40;14.20;91.10
3051;DHT22;1535;51.098;6.414;2023-04-06T11:44:07;14.30;91.00
3051;DHT22;1535;51.098;6.414;2023-04-06T11:46:34;14.30;90.40
3051;DHT22;1535;51.098;6.414;2023-04-06T11:49:01;14.30;90.20
3051;DHT22;1535;51.098;6.414;2023-04-06T11:51:30;14.20;90.40
3051;DHT22;1535;51.098;6.414;2023-04-06T11:54:01;14.30;91.30
3051;DHT22;1535;51.098;6.414;2023-04-06T11:56:29;14.00;91.70
3051;DHT22;1535;51.098;6.414;2023-04-06T11:58:57;13.80;92.00
3051;DHT22;1535;51.098;6.414;2023-04-06T12:01:25;14.00;92.70
3051;DHT22;1535;51.098;6.414;2023-04-06T12:03:52;13.90;91.70
3051;DHT22;1535;51.098;6.414;2023-04-06T12:06:19;13.90;90.30
3051;DHT22;1535;51.098;6.414;2023-04-06T12:08:48;14.10;91.40
3051;DHT22;1535;51.098;6.414;2023-04-06T12:11:15;14.10;89.60
3051;DHT22;1535;51.098;6.414;2023-04-06T12:13:42;14.30;88.00
3051;DHT22;1535;51.098;6.414;2023-04-06T12:16:09;14.30;89.10
3051;DHT22;1535;51.098;6.414;2023-04-06T12:18:37;14.30;89.70
3051;DHT22;1535;51.098;6.414;2023-04-06T12:21:04;14.50;90.40
3051;DHT22;1535;51.098;6.414;2023-04-06T12:23:32;14.60;90.10
3051;DHT22;1535;51.098;6.414;2023-04-06T12:26:01;14.30;89.50
3051;DHT22;1535;51.098;6.414;2023-04-06T12:28:28;14.30;90.70
3051;DHT22;1535;51.098;6.414;2023-04-06T12:30:55;14.40;91.60
3051;DHT22;1535;51.098;6.414;2023-04-06T12:33:23;14.00;95.30
3051;DHT22;1535;51.098;6.414;2023-04-06T12:35:50;13.50;96.90
3051;DHT22;1535;51.098;6.414;2023-04-06T12:38:17;13.10;99.90
3051;DHT22;1535;51.098;6.414;2023-04-06T12:40:43;12.80;99.90
3051;DHT22;1535;51.098;6.414;2023-04-06T12:43:12;12.70;99.90
3051;DHT22;1535;51.098;6.414;2023-04-06T12:45:40;12.40;99.90
3051;DHT22;1535;51.098;6.414;2023-04-06T12:48:07;12.10;99.90
3051;DHT22;1535;51.098;6.414;2023-04-06T12:50:35;12.40;99.90
3051;DHT22;1535;51.098;6.414;2023-04-06T12:53:02;12.50;99.90
3051;DHT22;1535;51.098;6.414;2023-04-06T12:55:30;12.40;99.90
3051;DHT22;1535;51.098;6.414;2023-04-06T12:57:59;12.20;99.90
3051;DHT22;1535;51.098;6.414;2023-04-06T13:00:28;12.20;99.90
3051;DHT22;1535;51.098;6.414;2023-04-06T13:02:56;12.00;99.90
3051;DHT22;1535;51.098;6.414;2023-04-06T13:05:23;12.00;99.90
3051;DHT22;1535;51.098;6.414;2023-04-06T13:07:50;12.00;99.90
3051;DHT22;1535;51.098;6.414;2023-04-06T13:10:18;11.80;99.90
3051;DHT22;1535;51.098;6.414;2023-04-06T13:12:45;11.60;99.90
3051;DHT22;1535;51.098;6.414;2023-04-06T13:15:12;11.40;99.90
3051;DHT22;1535;51.098;6.414;2023-04-06T13:17:40;11.40;99.90
3051;DHT22;1535;51.098;6.414;2023-04-06T13:20:07;11.30;99.90
3051;DHT22;1535;51.098;6.414;2023-04-06T13:22:34;11.30;99.90
3051;DHT22;1535;51.098;6.414;2023-04-06T13:25:02;11.20;99.90
3051;DHT22;1535;51.098;6.414;2023-04-06T13:27:29;10.90;99.90
3051;DHT22;1535;51.098;6.414;2023-04-06T13:29:59;10.70;99.90
3051;DHT22;1535;51.098;6.414;2023-04-06T13:32:26;10.60;99.90
3051;DHT22;1535;51.098;6.414;2023-04-06T13:34:56;10.60;99.90
3051;DHT22;1535;51.098;6.414;2023-04-06T13:37:22;10.30;99.90
3051;DHT22;1535;51.098;6.414;2023-04-06T13:39:49;10.20;99.90
3051;DHT22;1535;51.098;6.414;2023-04-06T13:42:16;10.10;99.90
3051;DHT22;1535;51.098;6.414;2023-04-06T13:44:43;10.00;99.90
3051;DHT22;1535;51.098;6.414;2023-04-06T13:47:12;10.00;99.90
3051;DHT22;1535;51.098;6.414;2023-04-06T13:49:39;9.90;99.90
3051;DHT22;1535;51.098;6.414;2023-04-06T13:52:08;9.80;99.90
3051;DHT22;1535;51.098;6.414;2023-04-06T13:54:36;9.70;99.90
3051;DHT22;1535;51.098;6.414;2023-04-06T13:57:03;9.70;99.90
3051;DHT22;1535;51.098;6.414;2023-04-06T13:59:33;9.60;99.90
3051;DHT22;1535;51.098;6.414;2023-04-06T14:02:00;9.50;99.90
3051;DHT22;1535;51.098;6.414;2023-04-06T14:04:26;9.60;99.90
3051;DHT22;1535;51.098;6.414;2023-04-06T14:06:53;9.70;99.90
3051;DHT22;1535;51.098;6.414;2023-04-06T14:09:22;9.60;99.90
3051;DHT22;1535;51.098;6.414;2023-04-06T14:11:49;9.50;99.90
3051;DHT22;1535;51.098;6.414;2023-04-06T14:14:16;9.60;99.90
3051;DHT22;1535;51.098;6.414;2023-04-06T14:16:43;9.60;99.90
3051;DHT22;1535;51.098;6.414;2023-04-06T14:19:11;9.60;99.90
3051;DHT22;1535;51.098;6.414;2023-04-06T14:21:38;9.50;99.90
3051;DHT22;1535;51.098;6.414;2023-04-06T14:24:06;9.50;99.90
3051;DHT22;1535;51.098;6.414;2023-04-06T14:26:37;9.60;99.90
3051;DHT22;1535;51.098;6.414;2023-04-06T14:29:04;9.60;99.90
3051;DHT22;1535;51.098;6.414;2023-04-06T14:31:31;9.50;99.90
3051;DHT22;1535;51.098;6.414;2023-04-06T14:34:01;9.50;99.90
3051;DHT22;1535;51.098;6.414;2023-04-06T14:36:29;9.50;99.90
3051;DHT22;1535;51.098;6.414;2023-04-06T14:39:01;9.40;99.90
3051;DHT22;1535;51.098;6.414;2023-04-06T14:41:28;9.30;99.90
3051;DHT22;1535;51.098;6.414;2023-04-06T14:43:58;9.30;99.90
3051;DHT22;1535;51.098;6.414;2023-04-06T14:46:25;9.30;99.90
3051;DHT22;1535;51.098;6.414;2023-04-06T14:48:54;9.20;99.90
3051;DHT22;1535;51.098;6.414;2023-04-06T14:51:23;9.20;99.90
3051;DHT22;1535;51.098;6.414;2023-04-06T14:53:50;9.10;99.90
3051;DHT22;1535;51.098;6.414;2023-04-06T14:56:21;9.10;99.90
3051;DHT22;1535;51.098;6.414;2023-04-06T14:58:49;9.10;99.90
3051;DHT22;1535;51.098;6.414;2023-04-06T15:01:18;9.10;99.90
3051;DHT22;1535;51.098;6.414;2023-04-06T15:03:45;9.10;99.90
3051;DHT22;1535;51.098;6.414;2023-04-06T15:06:13;9.20;99.90
3051;DHT22;1535;51.098;6.414;2023-04-06T15:08:41;9.10;99.90
3051;DHT22;1535;51.098;6.414;2023-04-06T15:11:09;9.00;99.90
3051;DHT22;1535;51.098;6.414;2023-04-06T15:13:36;9.10;99.90
3051;DHT22;1535;51.098;6.414;2023-04-06T15:16:03;9.00;99.90
3051;DHT22;1535;51.098;6.414;2023-04-06T15:18:31;9.00;99.90
3051;DHT22;1535;51.098;6.414;2023-04-06T15:20:58;9.10;99.90
3051;DHT22;1535;51.098;6.414;2023-04-06T15:23:26;9.10;99.90
3051;DHT22;1535;51.098;6.414;2023-04-06T15:25:54;9.10;99.90
3051;DHT22;1535;51.098;6.414;2023-04-06T15:28:21;9.10;99.90
3051;DHT22;1535;51.098;6.414;2023-04-06T15:30:49;9.10;99.90
3051;DHT22;1535;51.098;6.414;2023-04-06T15:33:16;9.10;99.90
3051;DHT22;1535;51.098;6.414;2023-04-06T15:35:46;9.10;99.90
3051;DHT22;1535;51.098;6.414;2023-04-06T15:38:13;9.10;99.90
3051;DHT22;1535;51.098;6.414;2023-04-06T15:40:43;9.10;99.90
3051;DHT22;1535;51.098;6.414;2023-04-06T15:43:10;9.10;99.90
3051;DHT22;1535;51.098;6.414;2023-04-06T15:45:37;9.10;99.90
3051;DHT22;1535;51.098;6.414;2023-04-06T15:48:05;9.10;99.90
3051;DHT22;1535;51.098;6.414;2023-04-06T15:50:32;9.00;99.90
3051;DHT22;1535;51.098;6.414;2023-04-06T15:53:01;9.00;99.90
3051;DHT22;1535;51.098;6.414;2023-04-06T15:55:29;9.00;99.90
3051;DHT22;1535;51.098;6.414;2023-04-06T15:57:55;8.90;99.90
3051;DHT22;1535;51.098;6.414;2023-04-06T16:00:22;8.80;99.90
3051;DHT22;1535;51.098;6.414;2023-04-06T16:02:49;8.80;99.90
3051;DHT22;1535;51.098;6.414;2023-04-06T16:05:17;8.70;99.90
3051;DHT22;1535;51.098;6.414;2023-04-06T16:07:44;8.80;99.90
3051;DHT22;1535;51.098;6.414;2023-04-06T16:10:12;8.80;99.90
3051;DHT22;1535;51.098;6.414;2023-04-06T16:12:39;8.70;99.90
3051;DHT22;1535;51.098;6.414;2023-04-06T16:15:08;8.60;99.90
3051;DHT22;1535;51.098;6.414;2023-04-06T16:17:35;8.70;99.90
3051;DHT22;1535;51.098;6.414;2023-04-06T16:20:02;8.70;99.90
3051;DHT22;1535;51.098;6.414;2023-04-06T16:22:29;8.60;99.90
3051;DHT22;1535;51.098;6.414;2023-04-06T16:24:56;8.60;99.90
3051;DHT22;1535;51.098;6.414;2023-04-06T16:27:24;8.50;99.90
3051;DHT22;1535;51.098;6.414;2023-04-06T16:29:52;8.60;99.90
3051;DHT22;1535;51.098;6.414;2023-04-06T16:32:19;8.50;99.90
3051;DHT22;1535;51.098;6.414;2023-04-06T16:34:46;8.50;99.90
3051;DHT22;1535;51.098;6.414;2023-04-06T16:37:13;8.50;99.90
3051;DHT22;1535;51.098;6.414;2023-04-06T16:39:39;8.50;99.90
3051;DHT22;1535;51.098;6.414;2023-04-06T16:42:06;8.50;99.90
3051;DHT22;1535;51.098;6.414;2023-04-06T16:44:34;8.40;99.90
3051;DHT22;1535;51.098;6.414;2023-04-06T16:47:02;8.40;99.90
3051;DHT22;1535;51.098;6.414;2023-04-06T16:49:29;8.40;99.90
3051;DHT22;1535;51.098;6.414;2023-04-06T16:51:56;8.40;99.90
3051;DHT22;1535;51.098;6.414;2023-04-06T16:54:26;8.40;99.90
3051;DHT22;1535;51.098;6.414;2023-04-06T16:56:53;8.30;99.90
3051;DHT22;1535;51.098;6.414;2023-04-06T16:59:21;8.30;99.90
3051;DHT22;1535;51.098;6.414;2023-04-06T17:01:49;8.30;99.90